createdAt,value
2019-01-03T00:02:25.170Z,3.60
2019-01-03T00:04:55.594Z,2.83
2019-01-03T00:07:25.471Z,3.43
2019-01-03T00:09:55.784Z,2.90
2019-01-03T00:12:25.956Z,6.03
2019-01-03T00:14:56.099Z,3.43
2019-01-03T00:17:26.285Z,12.30
2019-01-03T00:19:56.400Z,5.10
2019-01-03T00:22:25.751Z,4.30
2019-01-03T00:24:55.424Z,7.10
2019-01-03T00:27:24.860Z,3.60
2019-01-03T00:29:54.697Z,9.17
2019-01-03T00:32:24.729Z,11.20
2019-01-03T00:34:54.869Z,8.23
2019-01-03T00:37:24.743Z,4.50
2019-01-03T00:39:55.783Z,5.20
2019-01-03T00:42:26.234Z,3.50
2019-01-03T00:44:56.414Z,4.13
2019-01-03T00:47:26.243Z,6.53
2019-01-03T00:49:56.386Z,2.47
2019-01-03T00:52:26.243Z,7.53
2019-01-03T00:54:56.048Z,3.70
2019-01-03T00:57:25.980Z,6.50
2019-01-03T00:59:55.407Z,6.07
2019-01-03T01:02:25.587Z,2.77
2019-01-03T01:04:55.682Z,8.53
2019-01-03T01:07:25.858Z,4.07
2019-01-03T01:09:56.335Z,4.20
2019-01-03T01:12:26.134Z,4.27
2019-01-03T01:14:56.014Z,5.13
2019-01-03T01:17:26.210Z,7.75
2019-01-03T01:19:56.036Z,6.83
2019-01-03T01:22:26.467Z,8.67
2019-01-03T01:24:56.271Z,5.25
2019-01-03T01:27:26.117Z,6.13
2019-01-03T01:29:55.968Z,7.67
2019-01-03T01:32:26.064Z,5.20
2019-01-03T01:34:55.906Z,4.67
2019-01-03T01:37:25.379Z,7.73
2019-01-03T01:39:55.179Z,5.03
2019-01-03T01:42:25.285Z,4.23
2019-01-03T01:44:55.075Z,7.83
2019-01-03T01:47:24.963Z,3.83
2019-01-03T01:49:55.160Z,4.75
2019-01-03T01:52:25.042Z,4.28
2019-01-03T01:54:55.251Z,6.25
2019-01-03T01:57:25.083Z,6.63
2019-01-03T01:59:54.988Z,4.80
2019-01-03T02:02:24.869Z,6.00
2019-01-03T02:04:55.333Z,7.10
2019-01-03T02:07:25.824Z,5.07
2019-01-03T02:09:55.860Z,5.43
2019-01-03T02:12:26.018Z,5.10
2019-01-03T02:14:56.082Z,7.23
2019-01-03T02:17:25.625Z,6.90
2019-01-03T02:19:54.960Z,7.10
2019-01-03T02:22:24.488Z,4.37
2019-01-03T02:24:54.282Z,3.60
2019-01-03T02:27:24.142Z,5.47
2019-01-03T02:29:53.991Z,8.73
2019-01-03T02:32:24.205Z,6.43
2019-01-03T02:34:54.205Z,7.37
2019-01-03T02:37:24.387Z,2.62
2019-01-03T02:39:54.662Z,4.87
2019-01-03T02:42:24.753Z,5.17
2019-01-03T02:44:54.614Z,4.57
2019-01-03T02:47:24.444Z,8.40
2019-01-03T02:49:54.270Z,6.57
2019-01-03T02:52:24.511Z,7.17
2019-01-03T02:54:54.049Z,3.45
2019-01-03T02:57:23.674Z,5.67
2019-01-03T02:59:53.847Z,4.75
2019-01-03T03:02:23.672Z,5.75
2019-01-03T03:04:53.396Z,6.50
2019-01-03T03:07:23.256Z,7.15
2019-01-03T03:09:53.773Z,8.53
2019-01-03T03:12:23.876Z,4.47
2019-01-03T03:14:54.405Z,6.07
2019-01-03T03:17:24.541Z,4.90
2019-01-03T03:19:54.630Z,5.70
2019-01-03T03:22:24.491Z,6.60
2019-01-03T03:24:54.290Z,5.03
2019-01-03T03:27:24.407Z,6.37
2019-01-03T03:29:54.607Z,4.78
2019-01-03T03:32:24.484Z,4.08
2019-01-03T03:34:54.216Z,6.27
2019-01-03T03:37:24.106Z,8.43
2019-01-03T03:39:53.971Z,8.17
2019-01-03T03:42:23.362Z,4.17
2019-01-03T03:44:53.211Z,9.03
2019-01-03T03:47:23.402Z,7.03
2019-01-03T03:49:53.195Z,2.97
2019-01-03T03:52:23.394Z,7.80
2019-01-03T03:54:53.207Z,5.97
2019-01-03T03:57:23.314Z,10.93
2019-01-03T03:59:53.202Z,6.80
2019-01-03T04:02:22.997Z,8.70
2019-01-03T04:04:52.842Z,6.00
2019-01-03T04:07:22.682Z,4.83
2019-01-03T04:09:53.422Z,3.47
2019-01-03T04:12:23.216Z,11.40
2019-01-03T04:14:53.933Z,4.03
2019-01-03T04:17:23.399Z,9.57
2019-01-03T04:19:53.793Z,5.40
2019-01-03T04:22:24.080Z,10.73
2019-01-03T04:24:53.905Z,10.17
2019-01-03T04:27:24.117Z,7.97
2019-01-03T04:29:54.401Z,5.45
2019-01-03T04:32:24.259Z,11.67
2019-01-03T04:34:54.754Z,10.72
2019-01-03T04:37:26.846Z,10.07
2019-01-03T04:39:56.877Z,6.73
2019-01-03T04:42:26.690Z,10.17
2019-01-03T04:44:56.878Z,8.47
2019-01-03T04:47:27.137Z,7.00
2019-01-03T04:49:56.669Z,6.60
2019-01-03T04:52:26.187Z,10.77
2019-01-03T04:54:55.510Z,9.63
2019-01-03T04:57:25.661Z,14.63
2019-01-03T04:59:55.506Z,9.63
2019-01-03T05:02:25.879Z,6.92
2019-01-03T05:04:56.716Z,8.90
2019-01-03T05:07:26.894Z,9.40
2019-01-03T05:09:57.385Z,8.47
2019-01-03T05:12:27.225Z,7.47
2019-01-03T05:14:57.362Z,11.87
2019-01-03T05:17:27.195Z,9.33
2019-01-03T05:19:57.028Z,7.63
2019-01-03T05:22:27.051Z,6.77
2019-01-03T05:24:56.931Z,11.17
2019-01-03T05:27:26.659Z,6.25
2019-01-03T05:29:58.676Z,12.13
2019-01-03T05:32:29.025Z,5.53
2019-01-03T05:34:58.915Z,11.23
2019-01-03T05:37:29.375Z,14.23
2019-01-03T05:39:59.585Z,11.10
2019-01-03T05:42:29.406Z,15.57
2019-01-03T05:44:59.270Z,6.73
2019-01-03T05:47:29.673Z,8.13
2019-01-03T05:49:59.509Z,10.10
2019-01-03T05:52:29.932Z,8.80
2019-01-03T05:54:59.732Z,11.57
2019-01-03T05:57:29.893Z,13.13
2019-01-03T05:59:59.738Z,9.90
2019-01-03T06:02:29.496Z,10.63
2019-01-03T06:04:59.304Z,13.57
2019-01-03T06:07:29.460Z,9.83
2019-01-03T06:09:59.704Z,14.43
2019-01-03T06:12:29.553Z,16.70
2019-01-03T06:14:59.447Z,12.55
2019-01-03T06:17:29.607Z,13.00
2019-01-03T06:19:59.657Z,12.60
2019-01-03T06:22:30.246Z,12.98
2019-01-03T06:25:00.324Z,15.25
2019-01-03T06:27:30.487Z,21.17
2019-01-03T06:30:01.688Z,18.37
2019-01-03T06:32:32.075Z,21.40
2019-01-03T06:35:01.995Z,13.17
2019-01-03T06:37:32.124Z,12.53
2019-01-03T06:40:05.556Z,18.52
2019-01-03T06:42:35.227Z,20.00
2019-01-03T06:45:05.214Z,20.33
2019-01-03T06:47:35.062Z,16.80
2019-01-03T06:50:04.863Z,20.43
2019-01-03T06:52:34.737Z,20.83
2019-01-03T06:55:04.281Z,18.13
2019-01-03T06:57:34.303Z,25.80
2019-01-03T07:00:04.057Z,20.23
2019-01-03T07:02:33.908Z,13.10
2019-01-03T07:05:04.038Z,19.27
2019-01-03T07:07:34.287Z,18.62
2019-01-03T07:10:04.341Z,18.07
2019-01-03T07:12:35.276Z,16.73
2019-01-03T07:15:05.437Z,18.67
2019-01-03T07:17:38.813Z,18.53
2019-01-03T07:20:09.443Z,19.97
2019-01-03T07:22:40.018Z,17.00
2019-01-03T07:25:09.901Z,17.52
2019-01-03T07:27:39.418Z,26.90
2019-01-03T07:30:16.161Z,15.95
2019-01-03T07:32:42.052Z,22.90
2019-01-03T07:35:11.679Z,21.70
2019-01-03T07:37:41.661Z,26.26
2019-01-03T07:40:16.059Z,16.57
2019-01-03T07:42:45.928Z,18.30
2019-01-03T07:45:15.768Z,19.73
2019-01-03T07:47:45.538Z,26.00
2019-01-03T07:50:15.153Z,26.83
2019-01-03T07:52:44.712Z,19.03
2019-01-03T07:55:14.203Z,14.18
2019-01-03T07:57:43.987Z,17.95
2019-01-03T08:00:13.776Z,17.50
2019-01-03T08:02:43.459Z,19.73
2019-01-03T08:05:12.877Z,18.30
2019-01-03T08:07:42.519Z,19.33
2019-01-03T08:10:12.569Z,22.20
2019-01-03T08:12:42.102Z,22.60
2019-01-03T08:15:12.106Z,17.27
2019-01-03T08:17:41.906Z,24.37
2019-01-03T08:20:11.404Z,29.83
2019-01-03T08:22:40.931Z,24.50
2019-01-03T08:25:10.328Z,16.77
2019-01-03T08:27:40.386Z,17.12
2019-01-03T08:30:10.271Z,18.00
2019-01-03T08:32:41.431Z,17.35
2019-01-03T08:35:11.129Z,15.33
2019-01-03T08:37:40.582Z,21.63
2019-01-03T08:40:10.929Z,16.00
2019-01-03T08:42:40.693Z,17.32
2019-01-03T08:45:12.062Z,17.37
2019-01-03T08:47:42.165Z,14.63
2019-01-03T08:50:11.624Z,20.50
2019-01-03T08:52:41.624Z,18.60
2019-01-03T08:55:12.146Z,11.70
2019-01-03T08:57:41.958Z,20.43
2019-01-03T09:00:12.511Z,15.58
2019-01-03T09:02:43.070Z,16.20
2019-01-03T09:05:32.561Z,12.43
2019-01-03T09:08:06.252Z,11.60
2019-01-03T09:10:39.395Z,14.43
2019-01-03T09:13:09.572Z,17.23
2019-01-03T09:15:44.231Z,18.23
2019-01-03T09:18:24.381Z,13.30
2019-01-03T09:20:58.653Z,11.65
2019-01-03T09:23:28.465Z,15.10
2019-01-03T09:25:58.546Z,14.53
2019-01-03T09:28:29.747Z,13.20
2019-01-03T09:31:02.259Z,11.43
2019-01-03T09:33:33.971Z,13.50
2019-01-03T09:36:04.126Z,15.13
2019-01-03T09:38:36.513Z,14.63
2019-01-03T09:41:06.208Z,11.97
2019-01-03T09:43:36.402Z,16.30
2019-01-03T09:46:06.340Z,14.93
2019-01-03T09:48:36.345Z,13.03
2019-01-03T09:51:05.961Z,16.00
2019-01-03T09:53:35.928Z,16.02
2019-01-03T09:56:05.603Z,15.30
2019-01-03T09:58:35.429Z,13.63
2019-01-03T10:01:05.003Z,14.80
2019-01-03T10:03:35.290Z,15.35
2019-01-03T10:06:05.367Z,20.35
2019-01-03T10:08:35.134Z,12.13
2019-01-03T10:11:04.668Z,16.23
2019-01-03T10:13:34.760Z,11.07
2019-01-03T10:16:04.518Z,13.35
2019-01-03T10:18:34.035Z,18.47
2019-01-03T10:21:04.268Z,14.97
2019-01-03T10:23:34.165Z,12.20
2019-01-03T10:26:04.676Z,15.67
2019-01-03T10:28:34.945Z,12.53
2019-01-03T10:31:04.798Z,14.37
2019-01-03T10:33:34.361Z,11.53
2019-01-03T10:36:04.151Z,16.80
2019-01-03T10:38:33.562Z,16.50
2019-01-03T10:41:03.284Z,10.77
2019-01-03T10:43:33.132Z,16.83
2019-01-03T10:46:03.198Z,12.90
2019-01-03T10:48:32.608Z,8.38
2019-01-03T10:57:14.292Z,13.50
2019-01-03T10:59:43.766Z,16.63
2019-01-03T11:02:13.610Z,14.07
2019-01-03T11:04:43.909Z,11.93
2019-01-03T11:07:14.343Z,16.95
2019-01-03T11:09:44.992Z,22.57
2019-01-03T11:12:21.436Z,14.30
2019-01-03T11:14:52.940Z,13.20
2019-01-03T11:17:23.217Z,11.13
2019-01-03T11:19:54.988Z,15.47
2019-01-03T11:22:24.857Z,12.53
2019-01-03T11:24:55.109Z,10.80
2019-01-03T11:27:25.753Z,9.60
2019-01-03T11:29:56.322Z,13.47
2019-01-03T11:32:26.708Z,13.23
2019-01-03T11:34:56.417Z,10.55
2019-01-03T11:37:26.141Z,13.77
2019-01-03T11:39:56.391Z,13.50
2019-01-03T11:42:26.203Z,11.43
2019-01-03T11:44:56.380Z,12.35
2019-01-03T11:47:26.586Z,12.00
2019-01-03T11:49:57.104Z,8.38
2019-01-03T11:52:26.941Z,12.17
2019-01-03T11:54:56.829Z,13.25
2019-01-03T11:57:26.768Z,16.40
2019-01-03T11:59:56.538Z,11.33
2019-01-03T12:02:26.686Z,13.70
2019-01-03T12:04:56.941Z,11.00
2019-01-03T12:07:26.878Z,10.87
2019-01-03T12:09:57.118Z,13.13
2019-01-03T12:12:26.960Z,15.93
2019-01-03T12:14:56.459Z,13.37
2019-01-03T12:17:26.232Z,14.43
2019-01-03T12:19:55.840Z,16.47
2019-01-03T12:22:25.614Z,18.27
2019-01-03T12:24:55.444Z,16.83
2019-01-03T12:27:25.363Z,17.90
2019-01-03T12:29:55.639Z,15.07
2019-01-03T12:32:25.835Z,11.37
2019-01-03T12:34:55.775Z,12.80
2019-01-03T12:37:25.757Z,15.07
2019-01-03T12:39:56.671Z,14.00
2019-01-03T12:42:26.512Z,11.67
2019-01-03T12:44:56.696Z,17.03
2019-01-03T12:47:26.367Z,25.00
2019-01-03T12:49:56.298Z,15.83
2019-01-03T12:52:26.113Z,16.90
2019-01-03T12:54:56.257Z,18.03
2019-01-03T12:57:26.392Z,13.97
2019-01-03T12:59:56.559Z,11.30
2019-01-03T13:02:26.128Z,11.20
2019-01-03T13:04:56.211Z,13.95
2019-01-03T13:07:26.602Z,12.30
2019-01-03T13:09:56.737Z,8.70
2019-01-03T13:12:26.826Z,17.32
2019-01-03T13:14:56.783Z,14.30
2019-01-03T13:17:27.026Z,18.82
2019-01-03T13:19:57.322Z,17.05
2019-01-03T13:22:27.439Z,16.00
2019-01-03T13:24:57.617Z,17.73
2019-01-03T13:27:28.620Z,23.90
2019-01-03T13:29:58.241Z,43.23
2019-01-03T13:32:37.314Z,22.57
2019-01-03T13:35:07.443Z,32.30
2019-01-03T13:37:37.534Z,35.17
2019-01-03T13:40:08.858Z,24.77
2019-01-03T13:42:50.690Z,32.00
2019-01-03T13:45:23.411Z,19.02
2019-01-03T13:47:52.999Z,24.00
2019-01-03T13:50:30.777Z,29.10
2019-01-03T13:53:00.836Z,20.17
2019-01-03T13:55:30.919Z,15.50
2019-01-03T13:58:00.439Z,24.97
2019-01-03T14:00:29.914Z,18.03
2019-01-03T14:02:59.662Z,18.47
2019-01-03T14:05:29.772Z,19.63
2019-01-03T14:07:59.358Z,18.10
2019-01-03T14:10:28.905Z,13.50
2019-01-03T14:12:59.374Z,15.43
2019-01-03T14:15:29.232Z,14.40
2019-01-03T14:17:58.794Z,17.40
2019-01-03T14:20:35.080Z,16.17
2019-01-03T14:23:05.974Z,16.12
2019-01-03T14:25:35.463Z,24.20
2019-01-03T14:28:05.098Z,16.33
2019-01-03T14:30:34.855Z,19.10
2019-01-03T14:33:04.527Z,12.58
2019-01-03T14:35:34.094Z,12.80
2019-01-03T14:38:03.854Z,14.65
2019-01-03T14:40:33.622Z,12.83
2019-01-03T14:43:03.008Z,16.67
2019-01-03T14:45:32.616Z,10.20
2019-01-03T14:48:01.961Z,14.47
2019-01-03T14:50:31.565Z,15.72
2019-01-03T14:53:01.072Z,17.40
2019-01-03T14:55:30.811Z,14.00
2019-01-03T14:58:00.261Z,13.87
2019-01-03T15:00:29.735Z,16.00
2019-01-03T15:02:59.176Z,14.63
2019-01-03T15:05:29.020Z,15.87
2019-01-03T15:07:58.487Z,18.43
2019-01-03T15:10:28.321Z,12.50
2019-01-03T15:12:58.591Z,16.90
2019-01-03T15:15:28.194Z,14.95
2019-01-03T15:18:03.750Z,17.00
2019-01-03T15:20:34.941Z,15.85
2019-01-03T15:23:04.249Z,14.17
2019-01-03T15:25:33.702Z,13.73
2019-01-03T15:28:03.439Z,14.67
2019-01-03T15:30:33.101Z,17.98
2019-01-03T15:33:03.386Z,16.87
2019-01-03T15:35:33.947Z,18.37
2019-01-03T15:38:04.672Z,23.20
2019-01-03T15:40:35.241Z,21.23
2019-01-03T15:43:05.044Z,18.07
2019-01-03T15:45:35.224Z,20.97
2019-01-03T15:48:05.861Z,20.10
2019-01-03T15:50:35.632Z,14.67
2019-01-03T15:53:05.462Z,21.37
2019-01-03T15:55:35.791Z,20.07
2019-01-03T15:58:06.138Z,26.10
2019-01-03T16:01:01.742Z,17.33
2019-01-03T16:03:31.594Z,19.10
2019-01-03T16:06:01.473Z,21.13
2019-01-03T16:08:32.953Z,18.48
2019-01-03T16:11:02.511Z,22.85
2019-01-03T16:13:32.034Z,23.90
2019-01-03T16:16:10.117Z,20.43
2019-01-03T16:18:45.759Z,20.60
2019-01-03T16:21:16.417Z,28.03
2019-01-03T16:23:46.046Z,19.77
2019-01-03T16:26:16.260Z,22.37
2019-01-03T16:28:46.580Z,21.80
2019-01-03T16:31:16.381Z,23.80
2019-01-03T16:33:46.828Z,30.00
2019-01-03T16:36:16.600Z,32.70
2019-01-03T16:38:46.248Z,30.20
2019-01-03T16:41:16.280Z,21.50
2019-01-03T16:43:49.697Z,20.63
2019-01-03T16:46:19.216Z,26.75
2019-01-03T16:48:49.192Z,21.20
2019-01-03T16:51:19.052Z,23.67
2019-01-03T16:53:48.637Z,21.80
2019-01-03T16:56:18.991Z,22.23
2019-01-03T16:58:48.650Z,18.57
2019-01-03T17:01:19.023Z,25.13
2019-01-03T17:03:49.023Z,19.83
2019-01-03T17:06:18.465Z,24.03
2019-01-03T17:08:47.971Z,18.20
2019-01-03T17:11:17.860Z,23.57
2019-01-03T17:13:47.435Z,19.03
2019-01-03T17:16:17.187Z,31.90
2019-01-03T17:18:46.747Z,26.85
2019-01-03T17:21:16.212Z,23.47
2019-01-03T17:23:45.726Z,25.77
2019-01-03T17:26:15.403Z,27.13
2019-01-03T17:28:44.878Z,21.33
2019-01-03T17:31:14.383Z,22.07
2019-01-03T17:33:44.761Z,20.60
2019-01-03T17:36:14.820Z,23.18
2019-01-03T17:38:44.850Z,21.90
2019-01-03T17:41:14.476Z,22.47
2019-01-03T17:43:44.003Z,27.43
2019-01-03T17:46:14.051Z,21.73
2019-01-03T17:48:43.626Z,25.40
2019-01-03T17:51:13.502Z,23.47
2019-01-03T17:53:43.056Z,24.77
2019-01-03T17:56:12.908Z,28.80
2019-01-03T17:58:42.321Z,29.53
2019-01-03T18:01:12.166Z,20.90
2019-01-03T18:03:42.159Z,27.40
2019-01-03T18:06:11.978Z,36.27
2019-01-03T18:08:41.540Z,26.03
2019-01-03T18:11:11.095Z,22.10
2019-01-03T18:13:40.734Z,26.03
2019-01-03T18:16:10.740Z,32.73
2019-01-03T18:18:40.333Z,32.73
2019-01-03T18:21:09.889Z,35.03
2019-01-03T18:23:39.648Z,26.87
2019-01-03T18:26:09.190Z,34.13
2019-01-03T18:28:38.556Z,28.83
2019-01-03T18:31:08.587Z,27.45
2019-01-03T18:33:38.290Z,21.37
2019-01-03T18:36:08.048Z,29.43
2019-01-03T18:38:37.609Z,27.80
2019-01-03T18:41:07.238Z,23.87
2019-01-03T18:43:37.016Z,30.37
2019-01-03T18:46:06.864Z,27.77
2019-01-03T18:48:36.721Z,33.57
2019-01-03T18:51:07.000Z,37.57
2019-01-03T18:53:37.203Z,31.17
2019-01-03T18:56:07.087Z,37.00
2019-01-03T18:58:36.973Z,43.97
2019-01-03T19:01:06.782Z,41.53
2019-01-03T19:03:36.911Z,33.50
2019-01-03T19:06:06.814Z,45.57
2019-01-03T19:08:36.645Z,32.87
2019-01-03T19:11:06.497Z,41.47
2019-01-03T19:13:36.671Z,36.30
2019-01-03T19:16:06.958Z,32.57
2019-01-03T19:18:36.602Z,39.73
2019-01-03T19:21:06.139Z,42.30
2019-01-03T19:23:36.333Z,40.80
2019-01-03T19:26:07.293Z,39.40
2019-01-03T19:28:37.166Z,49.60
2019-01-03T19:31:08.425Z,33.18
2019-01-03T19:33:38.615Z,40.60
2019-01-03T19:36:09.136Z,34.65
2019-01-03T19:38:39.587Z,41.85
2019-01-03T19:41:09.854Z,34.37
2019-01-03T19:43:40.223Z,32.17
2019-01-03T19:46:10.516Z,39.88
2019-01-03T19:48:40.908Z,34.18
2019-01-03T19:51:11.014Z,34.13
2019-01-03T19:53:41.234Z,32.67
2019-01-03T19:56:11.652Z,37.38
2019-01-03T19:58:41.934Z,29.52
2019-01-03T20:02:02.265Z,29.65
2019-01-03T20:04:32.158Z,35.27
2019-01-03T20:07:02.295Z,36.53
2019-01-03T20:09:33.496Z,30.63
2019-01-03T20:12:03.499Z,25.40
2019-01-03T20:14:33.436Z,29.87
2019-01-03T20:17:03.579Z,33.20
2019-01-03T20:19:33.787Z,32.57
2019-01-03T20:22:03.388Z,30.87
2019-01-03T20:24:33.240Z,28.07
2019-01-03T20:27:03.148Z,23.37
2019-01-03T20:29:32.973Z,29.80
2019-01-03T20:32:03.173Z,32.00
2019-01-03T20:34:33.012Z,31.10
2019-01-03T20:37:03.153Z,38.60
2019-01-03T20:39:33.051Z,35.13
2019-01-03T20:42:03.845Z,28.85
2019-01-03T20:44:33.667Z,33.57
2019-01-03T20:47:03.514Z,34.20
2019-01-03T20:49:33.863Z,27.13
2019-01-03T20:52:03.783Z,23.90
2019-01-03T20:54:33.690Z,30.67
2019-01-03T20:57:03.748Z,24.37
2019-01-03T20:59:33.632Z,30.43
2019-01-03T21:02:03.855Z,29.33
2019-01-03T21:04:33.709Z,27.33
2019-01-03T21:07:03.578Z,28.47
2019-01-03T21:09:33.535Z,31.80
2019-01-03T21:12:03.391Z,28.37
2019-01-03T21:14:34.002Z,29.07
2019-01-03T21:17:03.915Z,34.90
2019-01-03T21:19:34.063Z,27.87
2019-01-03T21:22:03.876Z,36.33
2019-01-03T21:24:34.181Z,33.73
2019-01-03T21:27:03.758Z,51.08
2019-01-03T21:29:33.306Z,45.55
2019-01-03T21:32:03.132Z,42.40
2019-01-03T21:34:32.623Z,34.00
2019-01-03T21:37:02.357Z,33.13
2019-01-03T21:39:32.508Z,29.10
2019-01-03T21:42:02.362Z,36.93
2019-01-03T21:44:32.378Z,37.05
2019-01-03T21:47:02.801Z,31.90
2019-01-03T21:49:33.650Z,30.55
2019-01-03T21:52:04.286Z,28.73
2019-01-03T21:54:35.251Z,36.85
2019-01-03T21:57:05.491Z,29.63
2019-01-03T21:59:36.376Z,34.58
2019-01-03T22:02:06.923Z,30.32
2019-01-03T22:04:38.328Z,30.88
2019-01-03T22:07:07.884Z,31.73
2019-01-03T22:09:38.549Z,29.82
2019-01-03T22:12:08.082Z,36.17
2019-01-03T22:14:38.431Z,31.30
2019-01-03T22:17:09.285Z,29.20
2019-01-03T22:19:41.221Z,30.10
2019-01-03T22:22:11.015Z,29.17
2019-01-03T22:24:40.854Z,35.40
2019-01-03T22:27:15.421Z,31.23
2019-01-03T22:29:45.184Z,33.27
2019-01-03T22:32:15.061Z,30.70
2019-01-03T22:34:45.268Z,31.17
2019-01-03T22:37:17.177Z,35.47
2019-01-03T22:39:47.204Z,32.20
2019-01-03T22:42:17.309Z,30.68
2019-01-03T22:44:47.472Z,35.33
2019-01-03T22:47:17.480Z,30.97
2019-01-03T22:49:47.026Z,36.43
2019-01-03T22:52:16.732Z,32.20
2019-01-03T22:54:46.330Z,38.27
2019-01-03T22:57:16.778Z,34.35
2019-01-03T22:59:46.893Z,32.67
2019-01-03T23:02:16.740Z,30.90
2019-01-03T23:04:49.288Z,29.27
2019-01-03T23:07:18.572Z,30.63
2019-01-03T23:09:49.509Z,27.93
2019-01-03T23:12:19.261Z,38.85
2019-01-03T23:14:49.033Z,37.63
2019-01-03T23:17:19.560Z,35.50
2019-01-03T23:19:49.346Z,32.50
2019-01-03T23:22:19.149Z,28.70
2019-01-03T23:24:49.022Z,34.63
2019-01-03T23:27:18.925Z,34.23
2019-01-03T23:29:49.713Z,37.70
2019-01-03T23:32:19.729Z,30.75
2019-01-03T23:34:50.309Z,33.58
2019-01-03T23:37:20.571Z,37.03
2019-01-03T23:39:51.284Z,35.85
2019-01-03T23:42:21.244Z,36.37
2019-01-03T23:45:14.410Z,37.23
2019-01-03T23:47:44.295Z,37.47
2019-01-03T23:50:17.088Z,37.70
2019-01-03T23:52:46.888Z,28.23
2019-01-03T23:55:16.966Z,30.27
2019-01-03T23:57:46.666Z,37.00
